createdAt,value
2018-12-12T00:00:39.182Z,18.26
2018-12-12T00:01:39.192Z,18.25
2018-12-12T00:02:39.659Z,18.25
2018-12-12T00:03:39.139Z,18.23
2018-12-12T00:04:39.172Z,18.22
2018-12-12T00:05:39.127Z,18.23
2018-12-12T00:06:39.134Z,18.19
2018-12-12T00:07:39.096Z,18.23
2018-12-12T00:08:39.345Z,18.23
2018-12-12T00:09:39.072Z,18.23
2018-12-12T00:10:39.104Z,18.34
2018-12-12T00:11:39.050Z,18.35
2018-12-12T00:12:39.044Z,18.23
2018-12-12T00:13:39.028Z,18.19
2018-12-12T00:14:39.021Z,18.23
2018-12-12T00:15:39.009Z,18.19
2018-12-12T00:16:39.004Z,18.20
2018-12-12T00:17:39.272Z,18.26
2018-12-12T00:18:39.047Z,18.25
2018-12-12T00:19:39.002Z,18.20
2018-12-12T00:20:38.985Z,18.25
2018-12-12T00:21:38.975Z,18.23
2018-12-12T00:22:38.972Z,18.23
2018-12-12T00:23:38.958Z,18.31
2018-12-12T00:24:38.954Z,18.34
2018-12-12T00:25:38.929Z,18.34
2018-12-12T00:26:38.942Z,18.28
2018-12-12T00:27:38.920Z,18.33
2018-12-12T00:28:38.864Z,18.31
2018-12-12T00:29:38.856Z,18.33
2018-12-12T00:30:38.845Z,18.34
2018-12-12T00:31:38.831Z,18.34
2018-12-12T00:32:39.103Z,18.34
2018-12-12T00:33:38.816Z,18.34
2018-12-12T00:34:39.105Z,18.34
2018-12-12T00:35:38.823Z,18.28
2018-12-12T00:36:38.778Z,18.31
2018-12-12T00:37:38.793Z,18.34
2018-12-12T00:38:39.001Z,18.37
2018-12-12T00:39:39.032Z,18.25
2018-12-12T00:40:38.987Z,18.33
2018-12-12T00:41:38.726Z,18.33
2018-12-12T00:42:38.750Z,18.31
2018-12-12T00:43:38.706Z,18.29
2018-12-12T00:44:38.936Z,18.31
2018-12-12T00:45:38.931Z,18.34
2018-12-12T00:46:38.670Z,18.25
2018-12-12T00:47:38.686Z,18.37
2018-12-12T00:48:38.647Z,18.34
2018-12-12T00:49:38.685Z,18.34
2018-12-12T00:50:38.639Z,18.22
2018-12-12T00:51:38.625Z,18.20
2018-12-12T00:52:38.625Z,18.19
2018-12-12T00:53:38.607Z,18.18
2018-12-12T00:54:38.577Z,18.15
2018-12-12T00:55:38.569Z,18.16
2018-12-12T00:56:38.574Z,18.19
2018-12-12T00:57:38.573Z,18.20
2018-12-12T00:58:38.537Z,18.25
2018-12-12T00:59:38.648Z,18.23
2018-12-12T01:00:38.520Z,18.18
2018-12-12T01:01:38.552Z,18.26
2018-12-12T01:02:38.526Z,18.22
2018-12-12T01:03:38.487Z,18.23
2018-12-12T01:04:38.486Z,18.22
2018-12-12T01:05:38.464Z,18.25
2018-12-12T01:06:38.459Z,18.23
2018-12-12T01:07:38.465Z,18.25
2018-12-12T01:08:38.437Z,18.22
2018-12-12T01:09:38.415Z,18.19
2018-12-12T01:10:38.503Z,18.20
2018-12-12T01:11:38.394Z,18.25
2018-12-12T01:12:38.667Z,18.26
2018-12-12T01:13:38.375Z,18.26
2018-12-12T01:14:38.637Z,18.25
2018-12-12T01:15:38.401Z,18.25
2018-12-12T01:16:38.341Z,18.18
2018-12-12T01:17:38.681Z,18.22
2018-12-12T01:18:38.356Z,18.25
2018-12-12T01:19:38.344Z,18.22
2018-12-12T01:20:38.329Z,18.22
2018-12-12T01:21:38.320Z,18.23
2018-12-12T01:22:38.375Z,18.25
2018-12-12T01:23:38.301Z,18.22
2018-12-12T01:24:38.296Z,18.26
2018-12-12T01:25:38.273Z,18.23
2018-12-12T01:26:38.272Z,18.20
2018-12-12T01:27:38.333Z,18.29
2018-12-12T01:28:38.213Z,18.37
2018-12-12T01:29:38.202Z,18.23
2018-12-12T01:30:38.200Z,18.19
2018-12-12T01:31:38.449Z,18.23
2018-12-12T01:32:38.194Z,18.25
2018-12-12T01:33:38.158Z,18.23
2018-12-12T01:34:38.152Z,18.26
2018-12-12T01:35:38.142Z,18.22
2018-12-12T01:36:38.180Z,18.22
2018-12-12T01:37:38.186Z,18.22
2018-12-12T01:38:38.119Z,18.19
2018-12-12T01:39:43.870Z,18.16
2018-12-12T01:40:38.082Z,18.18
2018-12-12T01:41:38.121Z,18.28
2018-12-12T01:42:38.087Z,18.26
2018-12-12T01:43:38.050Z,18.33
2018-12-12T01:44:38.285Z,18.31
2018-12-12T01:45:38.031Z,18.20
2018-12-12T01:46:38.018Z,18.23
2018-12-12T01:47:38.031Z,18.23
2018-12-12T01:48:37.996Z,18.26
2018-12-12T01:49:38.234Z,18.20
2018-12-12T01:50:38.234Z,18.19
2018-12-12T01:51:37.966Z,18.23
2018-12-12T01:52:37.979Z,18.20
2018-12-12T01:53:37.942Z,18.16
2018-12-12T01:54:37.970Z,18.15
2018-12-12T01:55:37.925Z,18.25
2018-12-12T01:56:37.922Z,18.19
2018-12-12T01:57:37.904Z,18.20
2018-12-12T01:58:37.954Z,18.22
2018-12-12T01:59:37.925Z,18.16
2018-12-12T02:00:37.882Z,18.20
2018-12-12T02:01:37.854Z,18.25
2018-12-12T02:02:37.845Z,18.19
2018-12-12T02:03:37.857Z,18.23
2018-12-12T02:04:37.874Z,18.13
2018-12-12T02:05:37.813Z,18.16
2018-12-12T02:06:37.801Z,18.26
2018-12-12T02:07:37.792Z,18.28
2018-12-12T02:08:38.329Z,18.13
2018-12-12T02:09:37.773Z,18.15
2018-12-12T02:10:38.016Z,18.18
2018-12-12T02:11:37.758Z,18.16
2018-12-12T02:12:37.731Z,18.13
2018-12-12T02:13:37.756Z,18.22
2018-12-12T02:14:37.720Z,18.07
2018-12-12T02:15:37.721Z,18.11
2018-12-12T02:16:37.688Z,18.15
2018-12-12T02:17:37.723Z,18.15
2018-12-12T02:18:37.762Z,18.16
2018-12-12T02:19:37.705Z,18.13
2018-12-12T02:20:37.680Z,18.16
2018-12-12T02:21:37.669Z,18.16
2018-12-12T02:22:37.656Z,18.13
2018-12-12T02:23:37.718Z,18.10
2018-12-12T02:24:37.745Z,18.19
2018-12-12T02:25:37.628Z,18.22
2018-12-12T02:26:37.630Z,18.13
2018-12-12T02:27:37.601Z,18.15
2018-12-12T02:28:37.688Z,18.11
2018-12-12T02:29:37.553Z,18.10
2018-12-12T02:30:37.546Z,18.07
2018-12-12T02:31:37.782Z,18.18
2018-12-12T02:32:37.521Z,18.13
2018-12-12T02:33:37.539Z,18.13
2018-12-12T02:34:37.513Z,18.19
2018-12-12T02:35:37.483Z,18.15
2018-12-12T02:36:37.475Z,18.05
2018-12-12T02:37:37.465Z,18.16
2018-12-12T02:38:37.485Z,18.15
2018-12-12T02:39:37.458Z,18.10
2018-12-12T02:40:37.431Z,18.07
2018-12-12T02:41:37.421Z,18.03
2018-12-12T02:42:37.425Z,18.16
2018-12-12T02:43:37.440Z,18.04
2018-12-12T02:44:37.485Z,18.13
2018-12-12T02:45:37.469Z,18.13
2018-12-12T02:46:37.614Z,18.16
2018-12-12T02:47:37.352Z,18.13
2018-12-12T02:48:37.426Z,18.16
2018-12-12T02:49:37.379Z,18.15
2018-12-12T02:50:37.322Z,18.18
2018-12-12T02:51:37.331Z,18.15
2018-12-12T02:52:37.450Z,18.16
2018-12-12T02:53:37.321Z,18.20
2018-12-12T02:54:37.341Z,18.19
2018-12-12T02:55:37.268Z,18.18
2018-12-12T02:56:37.255Z,18.04
2018-12-12T02:57:37.249Z,18.10
2018-12-12T02:58:37.274Z,18.08
2018-12-12T02:59:37.228Z,18.11
2018-12-12T03:00:37.253Z,18.10
2018-12-12T03:01:37.216Z,18.15
2018-12-12T03:02:37.216Z,18.10
2018-12-12T03:03:37.472Z,18.08
2018-12-12T03:04:37.171Z,18.18
2018-12-12T03:05:37.163Z,18.15
2018-12-12T03:06:37.152Z,18.13
2018-12-12T03:07:37.148Z,18.20
2018-12-12T03:08:37.156Z,18.18
2018-12-12T03:09:37.133Z,18.16
2018-12-12T03:10:37.110Z,18.10
2018-12-12T03:11:37.102Z,18.16
2018-12-12T03:12:37.079Z,18.11
2018-12-12T03:13:37.097Z,18.15
2018-12-12T03:14:37.326Z,18.11
2018-12-12T03:15:37.072Z,18.11
2018-12-12T03:16:37.056Z,18.16
2018-12-12T03:17:37.063Z,18.18
2018-12-12T03:18:37.150Z,18.20
2018-12-12T03:19:37.043Z,18.05
2018-12-12T03:20:37.038Z,18.20
2018-12-12T03:21:37.015Z,18.15
2018-12-12T03:22:37.004Z,18.23
2018-12-12T03:23:36.987Z,18.18
2018-12-12T03:24:36.985Z,18.19
2018-12-12T03:25:36.977Z,18.20
2018-12-12T03:26:36.961Z,18.15
2018-12-12T03:27:36.958Z,18.15
2018-12-12T03:28:36.910Z,18.18
2018-12-12T03:29:36.927Z,18.19
2018-12-12T03:30:36.894Z,18.05
2018-12-12T03:31:36.898Z,18.16
2018-12-12T03:32:36.869Z,18.15
2018-12-12T03:33:36.859Z,18.11
2018-12-12T03:34:36.888Z,18.18
2018-12-12T03:35:36.829Z,18.08
2018-12-12T03:36:37.063Z,18.16
2018-12-12T03:37:36.827Z,18.15
2018-12-12T03:38:36.797Z,18.26
2018-12-12T03:39:36.824Z,18.10
2018-12-12T03:40:36.866Z,18.16
2018-12-12T03:41:36.766Z,18.15
2018-12-12T03:42:36.756Z,18.19
2018-12-12T03:43:36.751Z,18.18
2018-12-12T03:44:36.755Z,18.18
2018-12-12T03:45:36.729Z,18.16
2018-12-12T03:46:36.719Z,18.19
2018-12-12T03:47:36.700Z,18.20
2018-12-12T03:48:36.689Z,18.16
2018-12-12T03:49:36.706Z,18.22
2018-12-12T03:50:36.672Z,18.20
2018-12-12T03:51:36.658Z,18.15
2018-12-12T03:52:36.900Z,18.15
2018-12-12T03:53:36.637Z,18.20
2018-12-12T03:54:36.660Z,18.11
2018-12-12T03:55:36.626Z,18.15
2018-12-12T03:56:36.603Z,18.18
2018-12-12T03:57:36.994Z,18.16
2018-12-12T03:58:36.832Z,18.05
2018-12-12T03:59:36.606Z,18.20
2018-12-12T04:00:36.557Z,18.19
2018-12-12T04:01:36.551Z,18.16
2018-12-12T04:02:36.535Z,18.16
2018-12-12T04:03:36.564Z,18.22
2018-12-12T04:04:36.580Z,18.10
2018-12-12T04:05:36.506Z,18.28
2018-12-12T04:06:36.491Z,18.18
2018-12-12T04:07:36.481Z,18.15
2018-12-12T04:08:36.466Z,18.19
2018-12-12T04:09:36.489Z,18.15
2018-12-12T04:10:36.694Z,18.22
2018-12-12T04:11:36.452Z,18.15
2018-12-12T04:12:36.677Z,18.18
2018-12-12T04:13:36.415Z,18.22
2018-12-12T04:14:36.430Z,18.15
2018-12-12T04:15:36.410Z,18.22
2018-12-12T04:16:36.639Z,18.15
2018-12-12T04:17:36.413Z,18.16
2018-12-12T04:18:36.406Z,18.18
2018-12-12T04:19:36.446Z,18.22
2018-12-12T04:20:36.377Z,18.23
2018-12-12T04:21:36.362Z,18.13
2018-12-12T04:22:36.346Z,18.22
2018-12-12T04:23:36.604Z,18.15
2018-12-12T04:24:36.887Z,18.23
2018-12-12T04:25:36.325Z,18.29
2018-12-12T04:26:36.312Z,18.35
2018-12-12T04:27:36.300Z,18.23
2018-12-12T04:28:36.267Z,18.34
2018-12-12T04:29:36.303Z,18.31
2018-12-12T04:30:36.233Z,18.31
2018-12-12T04:31:36.251Z,18.31
2018-12-12T04:32:36.211Z,18.34
2018-12-12T04:33:36.192Z,18.35
2018-12-12T04:34:36.222Z,18.25
2018-12-12T04:35:36.436Z,18.31
2018-12-12T04:36:36.164Z,18.31
2018-12-12T04:37:36.163Z,18.31
2018-12-12T04:38:36.200Z,18.31
2018-12-12T04:39:36.162Z,18.35
2018-12-12T04:40:36.148Z,18.34
2018-12-12T04:41:36.159Z,18.29
2018-12-12T04:42:36.110Z,18.31
2018-12-12T04:43:36.097Z,18.34
2018-12-12T04:44:36.129Z,18.31
2018-12-12T04:45:36.068Z,18.31
2018-12-12T04:46:36.056Z,18.23
2018-12-12T04:47:36.081Z,18.23
2018-12-12T04:48:36.585Z,18.18
2018-12-12T04:49:36.031Z,18.16
2018-12-12T04:50:36.268Z,18.19
2018-12-12T04:51:36.006Z,18.20
2018-12-12T04:52:36.064Z,18.15
2018-12-12T04:53:36.068Z,18.11
2018-12-12T04:54:36.224Z,18.16
2018-12-12T04:55:35.974Z,18.15
2018-12-12T04:56:35.944Z,18.18
2018-12-12T04:57:35.939Z,18.16
2018-12-12T04:58:35.936Z,18.19
2018-12-12T04:59:36.217Z,18.16
2018-12-12T05:00:35.952Z,18.15
2018-12-12T05:01:35.926Z,18.16
2018-12-12T05:02:35.913Z,18.20
2018-12-12T05:03:35.900Z,18.13
2018-12-12T05:04:35.891Z,18.15
2018-12-12T05:05:36.009Z,18.13
2018-12-12T05:06:35.873Z,18.20
2018-12-12T05:07:35.873Z,18.07
2018-12-12T05:08:35.862Z,18.18
2018-12-12T05:09:35.845Z,18.11
2018-12-12T05:10:35.836Z,18.15
2018-12-12T05:11:35.826Z,18.15
2018-12-12T05:12:36.056Z,18.10
2018-12-12T05:13:35.794Z,18.13
2018-12-12T05:14:35.782Z,18.15
2018-12-12T05:15:35.842Z,18.20
2018-12-12T05:16:35.768Z,18.15
2018-12-12T05:17:35.772Z,18.18
2018-12-12T05:18:35.824Z,18.18
2018-12-12T05:19:35.747Z,18.15
2018-12-12T05:20:35.906Z,18.15
2018-12-12T05:21:35.996Z,18.13
2018-12-12T05:22:35.694Z,18.18
2018-12-12T05:23:35.709Z,18.11
2018-12-12T05:24:36.266Z,18.15
2018-12-12T05:25:35.983Z,18.10
2018-12-12T05:26:35.660Z,18.18
2018-12-12T05:27:35.884Z,18.19
2018-12-12T05:28:35.637Z,18.19
2018-12-12T05:29:35.617Z,18.15
2018-12-12T05:30:35.609Z,18.15
2018-12-12T05:31:35.567Z,18.16
2018-12-12T05:32:35.802Z,18.23
2018-12-12T05:33:36.012Z,18.18
2018-12-12T05:34:35.542Z,18.15
2018-12-12T05:35:35.549Z,18.18
2018-12-12T05:36:35.512Z,18.04
2018-12-12T05:37:35.550Z,18.05
2018-12-12T05:38:35.493Z,18.07
2018-12-12T05:39:35.486Z,18.03
2018-12-12T05:40:35.491Z,18.10
2018-12-12T05:41:35.707Z,18.07
2018-12-12T05:42:35.450Z,18.07
2018-12-12T05:43:35.432Z,18.18
2018-12-12T05:44:35.683Z,18.13
2018-12-12T05:45:35.692Z,18.13
2018-12-12T05:46:41.637Z,18.04
2018-12-12T05:47:35.391Z,18.16
2018-12-12T05:48:35.438Z,18.08
2018-12-12T05:49:36.085Z,18.13
2018-12-12T05:50:35.401Z,18.18
2018-12-12T05:51:35.346Z,18.15
2018-12-12T05:52:35.386Z,18.23
2018-12-12T05:53:35.336Z,18.11
2018-12-12T05:54:35.339Z,18.18
2018-12-12T05:55:35.331Z,18.15
2018-12-12T05:56:35.292Z,18.11
2018-12-12T05:57:35.280Z,18.13
2018-12-12T05:58:35.279Z,18.19
2018-12-12T05:59:35.310Z,18.18
2018-12-12T06:00:35.277Z,18.16
2018-12-12T06:01:35.285Z,18.05
2018-12-12T06:02:35.483Z,18.05
2018-12-12T06:03:35.472Z,18.10
2018-12-12T06:04:35.232Z,18.11
2018-12-12T06:05:35.234Z,18.18
2018-12-12T06:06:35.189Z,18.25
2018-12-12T06:07:35.179Z,18.29
2018-12-12T06:08:35.174Z,18.22
2018-12-12T06:09:35.156Z,18.31
2018-12-12T06:10:35.168Z,18.37
2018-12-12T06:11:35.135Z,18.28
2018-12-12T06:12:35.130Z,18.41
2018-12-12T06:13:35.119Z,18.47
2018-12-12T06:14:35.612Z,18.50
2018-12-12T06:15:35.127Z,18.47
2018-12-12T06:16:35.084Z,18.53
2018-12-12T06:17:36.589Z,18.50
2018-12-12T06:18:35.091Z,18.58
2018-12-12T06:19:35.076Z,18.65
2018-12-12T06:20:35.362Z,18.68
2018-12-12T06:21:35.059Z,18.81
2018-12-12T06:22:37.886Z,18.75
2018-12-12T06:23:35.029Z,18.81
2018-12-12T06:24:35.020Z,18.81
2018-12-12T06:25:35.026Z,18.83
2018-12-12T06:26:37.462Z,18.86
2018-12-12T06:27:35.018Z,18.89
2018-12-12T06:28:34.951Z,18.89
2018-12-12T06:29:34.944Z,18.90
2018-12-12T06:30:34.928Z,18.95
2018-12-12T06:31:33.943Z,18.99
2018-12-12T06:32:35.737Z,18.93
2018-12-12T06:33:35.154Z,19.09
2018-12-12T06:34:34.904Z,18.98
2018-12-12T06:35:34.874Z,19.07
2018-12-12T06:36:34.869Z,19.07
2018-12-12T06:37:34.862Z,19.04
2018-12-12T06:38:34.841Z,19.07
2018-12-12T06:39:34.832Z,19.04
2018-12-12T06:40:34.853Z,19.09
2018-12-12T06:41:34.820Z,19.15
2018-12-12T06:42:34.799Z,19.02
2018-12-12T06:43:34.784Z,19.15
2018-12-12T06:44:34.836Z,19.16
2018-12-12T06:45:34.768Z,19.15
2018-12-12T06:46:34.760Z,19.19
2018-12-12T06:47:34.746Z,19.14
2018-12-12T06:48:34.731Z,19.18
2018-12-12T06:49:34.712Z,19.22
2018-12-12T06:50:34.703Z,19.22
2018-12-12T06:51:34.738Z,19.22
2018-12-12T06:52:34.690Z,19.27
2018-12-12T06:53:34.683Z,19.22
2018-12-12T06:54:34.669Z,19.21
2018-12-12T06:55:34.650Z,19.19
2018-12-12T06:56:34.847Z,19.21
2018-12-12T06:57:34.693Z,19.19
2018-12-12T06:58:34.803Z,19.18
2018-12-12T06:59:34.624Z,19.16
2018-12-12T07:00:34.606Z,19.16
2018-12-12T07:01:34.634Z,19.14
2018-12-12T07:02:35.052Z,19.15
2018-12-12T07:03:34.578Z,19.21
2018-12-12T07:04:34.628Z,19.18
2018-12-12T07:05:34.843Z,19.19
2018-12-12T07:06:34.828Z,19.22
2018-12-12T07:07:34.542Z,19.21
2018-12-12T07:08:34.530Z,19.21
2018-12-12T07:09:34.538Z,19.19
2018-12-12T07:10:34.495Z,19.21
2018-12-12T07:11:34.512Z,19.19
2018-12-12T07:12:34.774Z,19.22
2018-12-12T07:13:35.888Z,19.16
2018-12-12T07:14:36.092Z,19.18
2018-12-12T07:15:37.936Z,19.27
2018-12-12T07:16:44.029Z,19.22
2018-12-12T07:17:37.502Z,19.19
2018-12-12T07:18:36.927Z,19.22
2018-12-12T07:19:36.552Z,19.19
2018-12-12T07:20:37.421Z,19.21
2018-12-12T07:21:37.034Z,19.15
2018-12-12T07:22:35.333Z,19.18
2018-12-12T07:23:38.805Z,19.14
2018-12-12T07:24:36.911Z,19.24
2018-12-12T07:25:36.476Z,19.19
2018-12-12T07:26:36.244Z,19.16
2018-12-12T07:27:36.482Z,19.15
2018-12-12T07:28:37.477Z,19.12
2018-12-12T07:29:36.923Z,19.16
2018-12-12T07:30:36.396Z,19.16
2018-12-12T07:31:35.713Z,19.16
2018-12-12T07:32:34.539Z,19.15
2018-12-12T07:33:34.546Z,19.00
2018-12-12T07:34:34.979Z,19.09
2018-12-12T07:35:34.544Z,19.04
2018-12-12T07:36:34.742Z,19.09
2018-12-12T07:37:34.263Z,19.00
2018-12-12T07:38:36.881Z,19.02
2018-12-12T07:39:34.999Z,19.12
2018-12-12T07:40:35.421Z,19.04
2018-12-12T07:41:34.207Z,19.04
2018-12-12T07:42:34.657Z,19.07
2018-12-12T07:43:34.291Z,19.02
2018-12-12T07:44:34.690Z,19.09
2018-12-12T07:45:35.622Z,19.07
2018-12-12T07:46:34.398Z,19.15
2018-12-12T07:47:34.214Z,19.09
2018-12-12T07:48:34.187Z,19.12
2018-12-12T07:49:34.131Z,19.16
2018-12-12T07:50:34.106Z,19.12
2018-12-12T07:51:34.119Z,19.22
2018-12-12T07:52:34.317Z,19.16
2018-12-12T07:53:34.304Z,19.16
2018-12-12T07:54:34.035Z,19.11
2018-12-12T07:55:34.299Z,19.02
2018-12-12T07:56:34.045Z,19.14
2018-12-12T07:57:34.382Z,19.16
2018-12-12T07:58:34.068Z,19.14
2018-12-12T07:59:33.959Z,19.08
2018-12-12T08:00:34.039Z,19.00
2018-12-12T08:01:33.931Z,19.07
2018-12-12T08:02:33.988Z,19.08
2018-12-12T08:03:33.911Z,19.07
2018-12-12T08:04:33.921Z,19.08
2018-12-12T08:05:33.932Z,19.14
2018-12-12T08:06:34.175Z,19.07
2018-12-12T08:07:33.964Z,19.07
2018-12-12T08:08:35.322Z,19.07
2018-12-12T08:09:33.890Z,19.04
2018-12-12T08:10:33.976Z,19.04
2018-12-12T08:11:33.871Z,19.02
2018-12-12T08:12:33.816Z,19.09
2018-12-12T08:13:34.055Z,19.12
2018-12-12T08:14:33.807Z,19.19
2018-12-12T08:15:34.703Z,19.21
2018-12-12T08:16:34.802Z,19.19
2018-12-12T08:17:34.635Z,19.24
2018-12-12T08:18:33.816Z,19.27
2018-12-12T08:19:34.345Z,19.26
2018-12-12T08:20:33.835Z,19.26
2018-12-12T08:21:34.050Z,19.33
2018-12-12T08:22:34.020Z,19.26
2018-12-12T08:23:33.756Z,19.34
2018-12-12T08:24:33.730Z,19.21
2018-12-12T08:25:34.665Z,19.29
2018-12-12T08:26:33.752Z,19.26
2018-12-12T08:27:33.716Z,19.21
2018-12-12T08:28:33.719Z,19.27
2018-12-12T08:29:33.686Z,19.24
2018-12-12T08:30:33.788Z,19.26
2018-12-12T08:31:33.683Z,19.22
2018-12-12T08:32:33.684Z,19.27
2018-12-12T08:33:33.733Z,19.34
2018-12-12T08:34:34.143Z,19.30
2018-12-12T08:35:33.801Z,19.21
2018-12-12T08:36:33.860Z,19.27
2018-12-12T08:37:34.081Z,19.22
2018-12-12T08:38:34.002Z,19.27
2018-12-12T08:39:33.542Z,19.26
2018-12-12T08:40:33.555Z,19.21
2018-12-12T08:41:33.514Z,19.27
2018-12-12T08:42:33.763Z,19.27
2018-12-12T08:43:33.524Z,19.22
2018-12-12T08:44:33.472Z,19.19
2018-12-12T08:45:33.503Z,19.24
2018-12-12T08:46:33.449Z,19.27
2018-12-12T08:47:33.432Z,19.30
2018-12-12T08:48:33.427Z,19.29
2018-12-12T08:49:33.688Z,19.30
2018-12-12T08:50:33.695Z,19.29
2018-12-12T08:51:33.403Z,19.21
2018-12-12T08:52:33.388Z,19.24
2018-12-12T08:53:33.381Z,19.30
2018-12-12T08:54:34.015Z,19.21
2018-12-12T08:55:34.111Z,19.30
2018-12-12T08:56:33.352Z,19.30
2018-12-12T08:57:33.363Z,19.30
2018-12-12T08:58:33.337Z,19.24
2018-12-12T08:59:33.302Z,19.21
2018-12-12T09:00:33.348Z,19.39
2018-12-12T09:01:33.288Z,19.37
2018-12-12T09:02:33.282Z,19.33
2018-12-12T09:03:33.315Z,19.30
2018-12-12T09:04:33.275Z,19.34
2018-12-12T09:05:33.401Z,19.37
2018-12-12T09:06:35.098Z,19.40
2018-12-12T09:07:34.961Z,19.37
2018-12-12T09:08:33.281Z,19.48
2018-12-12T09:09:33.247Z,19.45
2018-12-12T09:10:33.224Z,19.48
2018-12-12T09:11:33.244Z,19.48
2018-12-12T09:12:33.497Z,19.47
2018-12-12T09:13:33.182Z,19.52
2018-12-12T09:14:33.158Z,19.44
2018-12-12T09:15:33.194Z,19.63
2018-12-12T09:16:33.175Z,19.55
2018-12-12T09:17:33.173Z,19.54
2018-12-12T09:18:33.826Z,19.63
2018-12-12T09:19:33.152Z,19.62
2018-12-12T09:20:33.121Z,19.62
2018-12-12T09:21:33.132Z,19.58
2018-12-12T09:22:33.091Z,19.64
2018-12-12T09:23:33.273Z,19.67
2018-12-12T09:24:33.099Z,19.66
2018-12-12T09:25:33.081Z,19.62
2018-12-12T09:26:33.059Z,19.77
2018-12-12T09:27:33.266Z,19.74
2018-12-12T09:28:33.034Z,19.77
2018-12-12T09:29:33.015Z,19.84
2018-12-12T09:30:33.039Z,19.81
2018-12-12T09:31:33.041Z,19.84
2018-12-12T09:32:32.965Z,19.91
2018-12-12T09:33:33.876Z,19.92
2018-12-12T09:34:32.920Z,19.94
2018-12-12T09:35:32.925Z,19.95
2018-12-12T09:36:32.904Z,19.96
2018-12-12T09:37:33.140Z,19.96
2018-12-12T09:38:32.887Z,20.00
2018-12-12T09:39:34.653Z,20.10
2018-12-12T09:40:32.931Z,20.06
2018-12-12T09:41:32.855Z,20.07
2018-12-12T09:42:32.848Z,20.07
2018-12-12T09:43:32.944Z,20.02
2018-12-12T09:44:32.848Z,20.03
2018-12-12T09:45:32.811Z,20.14
2018-12-12T09:46:33.074Z,20.06
2018-12-12T09:47:32.797Z,20.10
2018-12-12T09:48:33.667Z,20.03
2018-12-12T09:49:32.769Z,20.10
2018-12-12T09:50:32.751Z,20.02
2018-12-12T09:51:33.076Z,20.02
2018-12-12T09:52:32.778Z,20.07
2018-12-12T09:53:32.741Z,20.04
2018-12-12T09:54:32.703Z,20.09
2018-12-12T09:55:32.708Z,19.99
2018-12-12T09:56:32.718Z,19.95
2018-12-12T09:57:33.308Z,19.99
2018-12-12T09:58:32.663Z,19.96
2018-12-12T09:59:32.682Z,19.99
2018-12-12T10:00:32.695Z,19.96
2018-12-12T10:01:33.008Z,19.96
2018-12-12T10:02:32.642Z,20.00
2018-12-12T10:03:32.607Z,20.00
2018-12-12T10:04:32.610Z,19.95
2018-12-12T10:05:32.589Z,19.94
2018-12-12T10:06:32.625Z,19.96
2018-12-12T10:07:32.845Z,19.96
2018-12-12T10:08:32.641Z,19.96
2018-12-12T10:09:32.554Z,19.99
2018-12-12T10:10:32.538Z,19.99
2018-12-12T10:11:33.992Z,19.94
2018-12-12T10:12:32.558Z,19.99
2018-12-12T10:13:32.542Z,19.95
2018-12-12T10:14:32.513Z,20.02
2018-12-12T10:15:32.514Z,20.00
2018-12-12T10:16:32.557Z,20.03
2018-12-12T10:17:32.505Z,19.99
2018-12-12T10:18:32.516Z,20.02
2018-12-12T10:19:32.481Z,20.02
2018-12-12T10:20:32.467Z,20.10
2018-12-12T10:21:32.538Z,20.10
2018-12-12T10:22:32.483Z,20.04
2018-12-12T10:23:32.482Z,20.02
2018-12-12T10:24:32.430Z,20.04
2018-12-12T10:25:33.013Z,20.04
2018-12-12T10:26:32.575Z,19.96
2018-12-12T10:27:32.684Z,20.06
2018-12-12T10:28:32.439Z,20.07
2018-12-12T10:29:32.637Z,20.04
2018-12-12T10:30:32.333Z,20.04
2018-12-12T10:31:32.476Z,20.07
2018-12-12T10:32:32.361Z,20.04
2018-12-12T10:33:37.530Z,20.09
2018-12-12T10:34:32.364Z,20.06
2018-12-12T10:35:32.304Z,20.10
2018-12-12T10:36:32.368Z,20.07
2018-12-12T10:37:32.317Z,20.06
2018-12-12T10:38:33.331Z,20.10
2018-12-12T10:39:32.214Z,20.04
2018-12-12T10:40:32.941Z,20.07
2018-12-12T10:41:32.288Z,20.09
2018-12-12T10:42:32.189Z,20.07
2018-12-12T10:43:32.172Z,20.06
2018-12-12T10:44:33.417Z,20.10
2018-12-12T10:45:32.156Z,20.07
2018-12-12T10:46:32.182Z,20.07
2018-12-12T10:47:32.410Z,20.09
2018-12-12T10:48:32.128Z,20.09
2018-12-12T10:49:32.110Z,20.06
2018-12-12T10:50:32.127Z,20.09
2018-12-12T10:51:32.133Z,20.06
2018-12-12T10:52:32.088Z,20.13
2018-12-12T10:53:32.114Z,20.04
2018-12-12T10:54:32.117Z,20.06
2018-12-12T10:55:32.094Z,20.04
2018-12-12T10:56:32.174Z,20.09
2018-12-12T10:57:32.025Z,20.11
2018-12-12T10:58:32.043Z,20.04
2018-12-12T10:59:31.995Z,20.07
2018-12-12T11:00:32.046Z,20.03
2018-12-12T11:01:32.021Z,20.13
2018-12-12T11:02:31.987Z,20.09
2018-12-12T11:03:31.952Z,20.02
2018-12-12T11:04:32.180Z,20.04
2018-12-12T11:05:31.942Z,20.13
2018-12-12T11:06:31.990Z,20.16
2018-12-12T11:07:31.956Z,20.16
2018-12-12T11:08:32.122Z,20.04
2018-12-12T11:09:31.927Z,20.07
2018-12-12T11:10:31.953Z,20.07
2018-12-12T11:11:31.882Z,20.13
2018-12-12T11:12:31.922Z,20.14
2018-12-12T11:13:31.861Z,20.21
2018-12-12T11:14:31.854Z,20.21
2018-12-12T11:15:31.826Z,20.16
2018-12-12T11:16:31.856Z,20.18
2018-12-12T11:17:31.857Z,20.14
2018-12-12T11:18:32.154Z,20.16
2018-12-12T11:19:31.846Z,20.19
2018-12-12T11:20:31.798Z,20.21
2018-12-12T11:21:31.821Z,20.19
2018-12-12T11:22:31.812Z,20.14
2018-12-12T11:23:31.795Z,20.21
2018-12-12T11:24:31.768Z,20.14
2018-12-12T11:25:32.212Z,20.19
2018-12-12T11:26:31.761Z,20.29
2018-12-12T11:27:32.156Z,20.39
2018-12-12T11:28:31.715Z,20.29
2018-12-12T11:29:31.998Z,20.37
2018-12-12T11:30:31.741Z,20.34
2018-12-12T11:31:31.954Z,20.36
2018-12-12T11:32:31.686Z,20.43
2018-12-12T11:33:31.797Z,20.40
2018-12-12T11:34:33.282Z,20.47
2018-12-12T11:35:31.603Z,20.43
2018-12-12T11:36:31.587Z,20.47
2018-12-12T11:37:31.959Z,20.60
2018-12-12T11:38:31.587Z,20.69
2018-12-12T11:39:31.596Z,20.62
2018-12-12T11:40:31.570Z,20.65
2018-12-12T11:41:31.548Z,20.65
2018-12-12T11:42:31.602Z,20.67
2018-12-12T11:43:31.581Z,20.72
2018-12-12T11:44:31.515Z,20.74
2018-12-12T11:45:31.529Z,20.72
2018-12-12T11:46:31.584Z,20.74
2018-12-12T11:47:31.535Z,20.74
2018-12-12T11:48:31.516Z,20.78
2018-12-12T11:49:31.465Z,20.78
2018-12-12T11:50:31.452Z,20.81
2018-12-12T11:51:31.463Z,20.80
2018-12-12T11:52:31.559Z,20.80
2018-12-12T11:53:31.500Z,20.85
2018-12-12T11:54:31.477Z,20.84
2018-12-12T11:55:31.540Z,20.85
2018-12-12T11:56:31.378Z,20.81
2018-12-12T11:57:31.648Z,20.80
2018-12-12T11:58:31.374Z,20.85
2018-12-12T11:59:31.350Z,20.84
2018-12-12T12:00:31.428Z,20.88
2018-12-12T12:01:31.316Z,20.80
2018-12-12T12:02:35.564Z,20.84
2018-12-12T12:03:31.388Z,20.80
2018-12-12T12:04:32.181Z,20.85
2018-12-12T12:05:31.335Z,20.80
2018-12-12T12:06:31.288Z,20.81
2018-12-12T12:07:31.307Z,20.80
2018-12-12T12:08:31.289Z,20.84
2018-12-12T12:09:31.242Z,20.80
2018-12-12T12:10:31.232Z,20.77
2018-12-12T12:11:31.207Z,20.77
2018-12-12T12:12:31.333Z,20.75
2018-12-12T12:13:31.202Z,20.77
2018-12-12T12:14:31.207Z,20.75
2018-12-12T12:15:31.173Z,20.80
2018-12-12T12:16:31.468Z,20.74
2018-12-12T12:17:32.279Z,20.75
2018-12-12T12:18:31.280Z,20.78
2018-12-12T12:19:31.172Z,20.67
2018-12-12T12:20:31.151Z,20.80
2018-12-12T12:21:31.399Z,20.70
2018-12-12T12:22:31.288Z,20.77
2018-12-12T12:23:31.213Z,20.67
2018-12-12T12:24:31.131Z,20.63
2018-12-12T12:25:31.192Z,20.62
2018-12-12T12:26:31.130Z,20.72
2018-12-12T12:27:31.172Z,20.65
2018-12-12T12:28:31.162Z,20.62
2018-12-12T12:29:31.073Z,20.72
2018-12-12T12:30:31.096Z,20.75
2018-12-12T12:31:31.027Z,20.74
2018-12-12T12:32:31.177Z,20.77
2018-12-12T12:33:30.996Z,20.81
2018-12-12T12:34:31.219Z,20.74
2018-12-12T12:35:30.970Z,20.77
2018-12-12T12:36:30.943Z,20.75
2018-12-12T12:37:30.982Z,20.72
2018-12-12T12:38:30.935Z,20.81
2018-12-12T12:39:30.946Z,20.85
2018-12-12T12:40:31.008Z,20.90
2018-12-12T12:41:30.939Z,20.87
2018-12-12T12:42:30.963Z,20.85
2018-12-12T12:43:30.907Z,20.84
2018-12-12T12:44:34.736Z,20.88
2018-12-12T12:45:30.842Z,20.82
2018-12-12T12:46:30.941Z,20.81
2018-12-12T12:47:31.020Z,20.82
2018-12-12T12:48:30.828Z,20.75
2018-12-12T12:49:30.829Z,20.81
2018-12-12T12:50:30.837Z,20.74
2018-12-12T12:51:30.826Z,20.72
2018-12-12T12:52:31.093Z,20.63